Terminal Aerodrome Forecast
Issued by NWS Spokane, WA

Home | Current Version | Previous Version | Text Only | Print | Product List | Glossary On
Versions: 1 2 3 4 5 6 7 8 9 10 11 12 13 14 15 16 17 18 19 20 21 22 23 24 25 26 27 28 29 30 31 32 33 34 35 36 37 38 39 40 41 42 43 44 45 46 47 48 49 50
588
FTUS46 KOTX 191804 CCA
TAFEAT
TAF COR
KEAT 191804Z 1918/2018 11006KT 4SM BR VCSH OVC002
     FM191900 13005KT 6SM BR BKN006 OVC015
     FM192200 14005KT P6SM SCT008 OVC019
     FM200200 09003KT P6SM -SHRA BKN010 OVC020
     FM200600 09002KT 4SM BR OVC015
     FM201200 VRB03KT 2SM -RASN BR BKN005 OVC010=

USA.gov is the U.S. government's official web portal to all federal, state and local government web resources and services.